Time;durP1;ratioP1;P1;durP2;ratioP2;P2;SDS_P1;SDS_P2;PMS_P1;PMS_P2;Temp;Humidity;BMP_temperature;BMP_pressure;BME280_temperature;BME280_humidity;BME280_pressure;Samples;Min_cycle;Max_cycle;Signal;HPM_P1;HPM_P2
2021/12/01 00:01:21;;;;;;;4.38;0.40;;;24.80;99.90;;;;;;4996524;28;20125;-64
2021/12/01 00:03:49;;;;;;;0.28;0.20;;;24.80;99.90;;;;;;4996477;28;20081;-64
2021/12/01 00:06:17;;;;;;;4.78;0.50;;;25.00;99.90;;;;;;4996756;28;20045;-65
2021/12/01 00:08:45;;;;;;;2.25;0.55;;;24.90;99.90;;;;;;4996516;28;20037;-65
2021/12/01 00:11:12;;;;;;;0.20;0.20;;;24.50;99.90;;;;;;4996502;28;20027;-64
2021/12/01 00:13:40;;;;;;;0.52;0.15;;;24.40;99.90;;;;;;4996514;28;20648;-64
2021/12/01 00:16:08;;;;;;;1.75;0.20;;;24.30;99.90;;;;;;4996555;28;20026;-64
2021/12/01 00:18:36;;;;;;;0.20;0.20;;;24.40;99.90;;;;;;4996328;28;20026;-65
2021/12/01 00:21:03;;;;;;;0.57;0.17;;;24.50;99.90;;;;;;4996125;28;20026;-64
2021/12/01 00:23:31;;;;;;;0.52;0.20;;;24.60;99.90;;;;;;4996294;28;20483;-65
2021/12/01 00:25:59;;;;;;;2.35;0.30;;;24.90;99.90;;;;;;4996169;28;20034;-65
2021/12/01 00:28:27;;;;;;;0.25;0.15;;;25.20;99.90;;;;;;4996062;28;20066;-66
2021/12/01 00:30:56;;;;;;;1.08;0.30;;;25.30;99.90;;;;;;4995904;28;20030;-65
2021/12/01 00:33:25;;;;;;;0.60;0.30;;;25.00;99.90;;;;;;4995818;28;20081;-65
2021/12/01 00:35:57;;;;;;;0.35;0.20;;;25.00;99.90;;;;;;4996000;28;20019;-66
2021/12/01 00:38:26;;;;;;;0.52;0.20;;;25.10;99.90;;;;;;4996542;28;20030;-66
2021/12/01 00:40:54;;;;;;;0.65;0.20;;;25.00;99.90;;;;;;4995637;28;20026;-65
2021/12/01 00:43:24;;;;;;;1.05;0.30;;;25.00;99.90;;;;;;4994706;28;20026;-66
2021/12/01 00:46:09;;;;;;;1.70;0.40;;;25.20;99.90;;;;;;4995658;28;20030;-65
2021/12/01 00:48:37;;;;;;;0.37;0.33;;;25.20;99.90;;;;;;4995669;28;20045;-64
2021/12/01 00:51:04;;;;;;;0.20;0.10;;;24.80;99.90;;;;;;4995719;28;20109;-64
2021/12/01 00:53:32;;;;;;;1.83;0.20;;;24.80;99.90;;;;;;4995588;28;20505;-64
2021/12/01 00:56:00;;;;;;;0.40;0.20;;;25.30;99.90;;;;;;4995664;28;20076;-65
2021/12/01 00:58:27;;;;;;;0.25;0.20;;;25.60;99.90;;;;;;4995493;28;20054;-65
2021/12/01 01:00:55;;;;;;;0.10;0.10;;;25.70;99.90;;;;;;4995130;28;20096;-64
2021/12/01 01:03:23;;;;;;;0.80;0.30;;;25.70;99.90;;;;;;4995383;28;20029;-65
2021/12/01 01:05:51;;;;;;;1.17;0.25;;;25.60;99.90;;;;;;4994202;28;20418;-64
2021/12/01 01:08:19;;;;;;;3.42;0.20;;;25.50;99.90;;;;;;4995400;28;20169;-63
2021/12/01 01:11:09;;;;;;;0.90;0.32;;;25.40;99.90;;;;;;4995214;28;20050;-63
2021/12/01 01:16:25;;;;;;;0.20;0.20;;;24.70;99.90;;;;;;4995956;28;20053;-65
2021/12/01 01:18:59;;;;;;;0.75;0.10;;;24.30;99.90;;;;;;4995120;28;20033;-65
2021/12/01 01:21:32;;;;;;;3.58;0.30;;;24.20;99.90;;;;;;4994914;28;20076;-65
2021/12/01 01:24:01;;;;;;;0.22;0.20;;;24.10;99.90;;;;;;4995140;28;20030;-64
2021/12/01 01:26:30;;;;;;;2.03;0.45;;;24.40;99.90;;;;;;4994957;28;20479;-63
2021/12/01 01:28:58;;;;;;;2.65;0.28;;;24.50;99.90;;;;;;4994620;28;20046;-65
2021/12/01 01:31:26;;;;;;;4.63;0.40;;;24.70;99.90;;;;;;4994591;28;20018;-64
2021/12/01 01:33:53;;;;;;;0.90;0.30;;;24.80;99.90;;;;;;4993613;28;20026;-64
2021/12/01 01:36:22;;;;;;;2.58;0.40;;;24.80;99.90;;;;;;4994619;28;20031;-64
2021/12/01 01:38:50;;;;;;;0.60;0.20;;;24.70;99.90;;;;;;4994774;28;20027;-64
2021/12/01 01:41:19;;;;;;;2.28;0.20;;;24.60;99.90;;;;;;4994465;28;20022;-64
2021/12/01 01:43:49;;;;;;;2.13;0.47;;;24.80;99.90;;;;;;4994719;28;20053;-64
2021/12/01 01:46:18;;;;;;;1.33;0.35;;;24.90;99.90;;;;;;4994919;28;20019;-64
2021/12/01 01:48:56;;;;;;;1.90;0.50;;;25.20;99.90;;;;;;4994337;28;20372;-65
2021/12/01 01:51:26;;;;;;;3.00;0.85;;;24.90;99.90;;;;;;4994652;28;20471;-64
2021/12/01 01:53:56;;;;;;;0.25;0.10;;;24.70;99.90;;;;;;4994037;28;20041;-65
2021/12/01 01:56:25;;;;;;;0.90;0.20;;;24.90;99.90;;;;;;4994506;28;20546;-64
2021/12/01 01:58:54;;;;;;;1.05;0.22;;;24.70;99.90;;;;;;4994218;28;20427;-63
2021/12/01 02:04:01;;;;;;;2.75;0.43;;;24.60;99.90;;;;;;4994508;28;20076;-65
2021/12/01 02:06:29;;;;;;;1.15;0.50;;;24.70;99.90;;;;;;4994427;28;20048;-64
2021/12/01 02:08:58;;;;;;;0.32;0.20;;;24.60;99.90;;;;;;4994305;28;20049;-64
2021/12/01 02:11:28;;;;;;;1.70;0.38;;;24.80;99.90;;;;;;4994321;28;20022;-64
2021/12/01 02:13:56;;;;;;;1.05;0.20;;;24.80;99.90;;;;;;4994252;28;20026;-64
2021/12/01 02:16:24;;;;;;;1.70;0.35;;;24.70;99.90;;;;;;4994139;28;20018;-64
2021/12/01 02:18:52;;;;;;;1.30;0.52;;;25.10;99.90;;;;;;4994302;28;20379;-63
2021/12/01 02:21:28;;;;;;;1.30;0.45;;;25.10;99.90;;;;;;4994259;28;20034;-63
2021/12/01 02:24:04;;;;;;;0.57;0.30;;;25.00;99.90;;;;;;4994410;28;20459;-63
2021/12/01 02:26:34;;;;;;;0.38;0.20;;;24.40;99.90;;;;;;4994078;28;20030;-64
2021/12/01 02:29:05;;;;;;;1.00;0.25;;;24.80;99.90;;;;;;4994103;28;20129;-65
2021/12/01 02:31:36;;;;;;;2.83;0.30;;;25.30;99.90;;;;;;4994119;28;20058;-64
2021/12/01 02:34:09;;;;;;;9.32;0.47;;;24.90;99.90;;;;;;4994338;28;20030;-64
2021/12/01 02:36:38;;;;;;;4.10;0.20;;;24.50;99.90;;;;;;4994175;28;20023;-64
2021/12/01 02:39:10;;;;;;;0.32;0.10;;;24.20;99.90;;;;;;4994118;28;20030;-65
2021/12/01 02:41:37;;;;;;;2.90;0.35;;;24.70;99.90;;;;;;4993899;28;20034;-65
2021/12/01 02:44:07;;;;;;;0.80;0.40;;;25.40;99.90;;;;;;4993889;28;20026;-64
2021/12/01 02:46:37;;;;;;;1.80;0.30;;;25.20;99.90;;;;;;4993893;28;20080;-64
2021/12/01 02:49:06;;;;;;;0.50;0.17;;;24.90;99.90;;;;;;4993765;28;20038;-64
2021/12/01 02:51:36;;;;;;;0.35;0.20;;;24.90;99.90;;;;;;4993827;28;20085;-64
2021/12/01 02:54:07;;;;;;;0.95;0.32;;;25.20;99.90;;;;;;4994095;28;20027;-64
2021/12/01 02:56:36;;;;;;;0.68;0.30;;;25.10;99.90;;;;;;4994023;28;20025;-64
2021/12/01 02:59:06;;;;;;;0.95;0.40;;;25.00;99.90;;;;;;4993793;28;20564;-64
2021/12/01 03:01:34;;;;;;;0.40;0.30;;;25.20;99.90;;;;;;4993558;28;20054;-64
2021/12/01 03:04:02;;;;;;;0.40;0.15;;;25.30;99.90;;;;;;4993616;28;20613;-64
2021/12/01 03:06:30;;;;;;;2.72;0.20;;;25.60;99.90;;;;;;4995671;28;20034;-64
2021/12/01 03:08:58;;;;;;;0.90;0.40;;;25.30;99.90;;;;;;4997561;28;20045;-65
2021/12/01 03:11:26;;;;;;;0.55;0.38;;;25.10;99.90;;;;;;4997668;28;20101;-64
2021/12/01 03:13:55;;;;;;;0.95;0.30;;;25.20;99.90;;;;;;4997603;28;20431;-65
2021/12/01 03:16:23;;;;;;;3.53;0.35;;;25.70;99.90;;;;;;4997543;28;20475;-64
2021/12/01 03:18:51;;;;;;;0.20;0.20;;;25.90;99.90;;;;;;4997652;28;20030;-65
2021/12/01 03:21:19;;;;;;;0.65;0.20;;;26.00;99.90;;;;;;4997479;28;20061;-67
2021/12/01 03:23:47;;;;;;;0.93;0.20;;;25.90;99.90;;;;;;4997378;28;20069;-64
2021/12/01 03:26:15;;;;;;;0.68;0.10;;;25.90;99.90;;;;;;4997373;28;20031;-65
2021/12/01 03:28:42;;;;;;;0.38;0.20;;;25.60;99.90;;;;;;4997183;28;20034;-65
2021/12/01 03:31:10;;;;;;;0.10;0.10;;;25.80;99.90;;;;;;4997334;28;20073;-65
2021/12/01 03:33:38;;;;;;;0.55;0.13;;;26.10;99.90;;;;;;4997181;28;20026;-64
2021/12/01 03:36:06;;;;;;;0.17;0.17;;;26.50;99.90;;;;;;4997034;28;20026;-65
2021/12/01 03:38:33;;;;;;;0.30;0.20;;;26.40;99.90;;;;;;4996943;28;20023;-65
2021/12/01 03:41:01;;;;;;;2.67;0.30;;;26.40;99.90;;;;;;4997032;28;20072;-64
2021/12/01 03:43:29;;;;;;;0.38;0.20;;;26.60;99.90;;;;;;4997006;28;20491;-65
2021/12/01 03:45:57;;;;;;;0.35;0.20;;;26.70;99.90;;;;;;4997012;28;20034;-64
2021/12/01 03:48:25;;;;;;;0.28;0.20;;;26.50;99.90;;;;;;4996928;28;20482;-62
2021/12/01 03:50:54;;;;;;;0.45;0.20;;;26.60;99.90;;;;;;4996990;28;20027;-64
2021/12/01 03:53:24;;;;;;;0.30;0.20;;;26.80;99.90;;;;;;4996994;28;20030;-64
2021/12/01 03:55:53;;;;;;;0.57;0.20;;;26.10;99.90;;;;;;4996984;28;20033;-63
2021/12/01 03:58:21;;;;;;;2.95;0.30;;;26.10;99.90;;;;;;4996700;28;20503;-64
2021/12/01 04:00:48;;;;;;;0.20;0.20;;;26.30;99.90;;;;;;4996481;28;20050;-63
2021/12/01 04:03:16;;;;;;;3.22;0.30;;;26.40;99.90;;;;;;4996724;28;20109;-63
2021/12/01 04:05:44;;;;;;;0.90;0.40;;;26.00;99.90;;;;;;4997653;28;20109;-65
2021/12/01 04:08:12;;;;;;;0.20;0.20;;;25.80;99.90;;;;;;4996596;28;20467;-63
2021/12/01 04:10:39;;;;;;;0.20;0.20;;;25.40;99.90;;;;;;4996390;28;20027;-64
2021/12/01 04:13:07;;;;;;;0.15;0.10;;;25.30;99.90;;;;;;4996650;28;20041;-66
2021/12/01 04:15:35;;;;;;;0.73;0.30;;;25.40;99.90;;;;;;4996569;28;20031;-63
2021/12/01 04:18:03;;;;;;;0.30;0.20;;;25.40;99.90;;;;;;4996778;28;20069;-63
2021/12/01 04:20:30;;;;;;;0.28;0.10;;;25.50;99.90;;;;;;4996191;28;20034;-63
2021/12/01 04:22:58;;;;;;;2.08;0.30;;;25.80;99.90;;;;;;4996362;28;20023;-63
2021/12/01 04:25:26;;;;;;;0.15;0.10;;;26.30;99.90;;;;;;4996363;28;20022;-63
2021/12/01 04:27:54;;;;;;;1.30;0.30;;;26.50;99.90;;;;;;4996148;28;20031;-63
2021/12/01 04:30:23;;;;;;;0.30;0.20;;;26.40;99.90;;;;;;4996039;28;20022;-63
2021/12/01 04:32:53;;;;;;;0.35;0.20;;;26.40;99.90;;;;;;4996135;28;20030;-63
2021/12/01 04:35:23;;;;;;;0.40;0.13;;;26.50;99.90;;;;;;4996092;28;20026;-63
2021/12/01 04:37:53;;;;;;;0.30;0.25;;;26.00;99.90;;;;;;4996184;28;20487;-63
2021/12/01 04:40:20;;;;;;;0.50;0.30;;;25.70;99.90;;;;;;4995991;28;20033;-63
2021/12/01 04:42:49;;;;;;;2.35;0.25;;;25.60;99.90;;;;;;4995823;28;20065;-63
2021/12/01 04:45:19;;;;;;;0.45;0.13;;;25.50;99.90;;;;;;4995830;28;20141;-63
2021/12/01 04:47:53;;;;;;;0.47;0.30;;;25.50;99.90;;;;;;4995754;28;20046;-63
2021/12/01 04:50:24;;;;;;;0.50;0.20;;;25.50;99.90;;;;;;4995809;28;20030;-62
2021/12/01 04:52:55;;;;;;;0.73;0.30;;;25.20;99.90;;;;;;4995954;28;20034;-62
2021/12/01 04:55:24;;;;;;;1.08;0.38;;;25.40;99.90;;;;;;4995582;28;20015;-63
2021/12/01 04:57:52;;;;;;;0.20;0.20;;;25.60;99.90;;;;;;4995628;28;20498;-63
2021/12/01 05:00:23;;;;;;;0.10;0.10;;;25.60;99.90;;;;;;4995258;28;20113;-62
2021/12/01 05:02:51;;;;;;;0.22;0.17;;;25.40;99.90;;;;;;4995733;28;20041;-63
2021/12/01 05:05:19;;;;;;;1.20;0.10;;;25.20;99.90;;;;;;4995743;28;20027;-63
2021/12/01 05:07:46;;;;;;;0.95;0.30;;;25.20;99.90;;;;;;4995310;28;20109;-63
2021/12/01 05:10:15;;;;;;;0.55;0.20;;;25.50;99.90;;;;;;4995285;28;20490;-63
2021/12/01 05:12:42;;;;;;;0.30;0.13;;;25.80;99.90;;;;;;4996138;28;20054;-63
2021/12/01 05:15:10;;;;;;;0.50;0.10;;;25.90;99.90;;;;;;4995312;28;20037;-64
2021/12/01 05:17:38;;;;;;;1.20;0.20;;;26.00;99.90;;;;;;4995165;28;20029;-63
2021/12/01 05:20:08;;;;;;;0.00;0.00;;;26.10;99.90;;;;;;4995179;28;20022;-63
2021/12/01 05:22:36;;;;;;;0.38;0.20;;;25.90;99.90;;;;;;4995388;28;20026;-63
2021/12/01 05:25:05;;;;;;;0.25;0.20;;;25.80;99.90;;;;;;4995081;28;20042;-64
2021/12/01 05:27:33;;;;;;;2.17;0.30;;;25.70;99.90;;;;;;4994724;28;20121;-63
2021/12/01 05:30:01;;;;;;;1.33;0.20;;;25.60;99.90;;;;;;4994172;28;20097;-64
2021/12/01 05:32:30;;;;;;;0.80;0.28;;;25.40;99.90;;;;;;4994871;28;20080;-65
2021/12/01 05:34:58;;;;;;;2.70;0.43;;;25.10;99.90;;;;;;4994867;28;20030;-64
2021/12/01 05:37:26;;;;;;;0.10;0.10;;;24.90;99.90;;;;;;4994680;28;20479;-64
2021/12/01 05:39:54;;;;;;;3.17;0.50;;;24.90;99.90;;;;;;4994663;28;20030;-65
2021/12/01 05:42:22;;;;;;;0.38;0.17;;;24.80;99.90;;;;;;4994341;28;20029;-65
2021/12/01 05:44:49;;;;;;;0.10;0.10;;;24.80;99.90;;;;;;4994875;28;20030;-65
2021/12/01 05:47:17;;;;;;;0.95;0.20;;;24.90;99.90;;;;;;4994767;28;20030;-66
2021/12/01 05:49:45;;;;;;;0.45;0.10;;;25.00;99.90;;;;;;4994581;28;20034;-65
2021/12/01 05:52:15;;;;;;;0.10;0.10;;;24.70;99.90;;;;;;4994640;28;20031;-65
2021/12/01 05:54:43;;;;;;;0.10;0.10;;;24.90;99.90;;;;;;4994992;28;20026;-65
2021/12/01 05:57:11;;;;;;;0.63;0.30;;;24.80;99.90;;;;;;4994655;28;20042;-65
2021/12/01 05:59:39;;;;;;;0.32;0.10;;;24.70;99.90;;;;;;4994612;28;20026;-66
2021/12/01 06:02:07;;;;;;;4.35;0.32;;;24.70;99.90;;;;;;4994168;28;20042;-65
2021/12/01 06:04:34;;;;;;;0.20;0.10;;;24.90;99.90;;;;;;4994682;28;20018;-65
2021/12/01 06:07:02;;;;;;;0.50;0.10;;;24.90;99.90;;;;;;4993054;28;20430;-65
2021/12/01 06:09:30;;;;;;;1.73;0.30;;;24.80;99.90;;;;;;4994472;28;20157;-66
2021/12/01 06:11:58;;;;;;;0.85;0.20;;;24.70;99.90;;;;;;4994525;28;20026;-65
2021/12/01 06:14:27;;;;;;;0.17;0.17;;;24.70;99.90;;;;;;4994483;28;20038;-65
2021/12/01 06:16:55;;;;;;;1.48;0.30;;;24.70;99.90;;;;;;4994448;28;20026;-65
2021/12/01 06:19:23;;;;;;;0.50;0.20;;;24.60;99.90;;;;;;4994158;28;20037;-66
2021/12/01 06:21:51;;;;;;;1.20;0.10;;;24.60;99.90;;;;;;4994279;28;20125;-65
2021/12/01 06:24:19;;;;;;;2.67;0.32;;;24.70;99.90;;;;;;4994274;28;20034;-65
2021/12/01 06:26:46;;;;;;;0.45;0.10;;;24.60;99.90;;;;;;4994142;28;20383;-65
2021/12/01 06:29:14;;;;;;;0.90;0.10;;;24.60;99.90;;;;;;4993967;28;20549;-64
2021/12/01 06:31:42;;;;;;;0.20;0.15;;;24.50;99.90;;;;;;4994043;28;20030;-66
2021/12/01 06:34:09;;;;;;;0.70;0.25;;;24.20;99.90;;;;;;4994133;28;20383;-65
2021/12/01 06:36:37;;;;;;;3.70;0.25;;;24.10;99.90;;;;;;4994108;28;20434;-65
2021/12/01 06:39:07;;;;;;;0.95;0.35;;;23.90;99.90;;;;;;4994091;28;20035;-66
2021/12/01 06:41:35;;;;;;;0.88;0.35;;;23.70;99.90;;;;;;4997721;28;20491;-66
2021/12/01 06:44:03;;;;;;;0.13;0.10;;;23.60;99.90;;;;;;4998022;28;20030;-64
2021/12/01 06:46:31;;;;;;;2.00;0.32;;;23.70;99.90;;;;;;4998069;28;20117;-65
2021/12/01 06:48:59;;;;;;;0.32;0.20;;;23.80;99.90;;;;;;4997915;28;20061;-65
2021/12/01 06:51:27;;;;;;;0.32;0.10;;;23.80;99.90;;;;;;4998071;28;20022;-65
2021/12/01 06:53:55;;;;;;;0.20;0.20;;;24.00;99.90;;;;;;4998105;28;20026;-65
2021/12/01 06:56:22;;;;;;;1.17;0.32;;;24.10;99.90;;;;;;4997917;28;20088;-64
2021/12/01 06:58:51;;;;;;;1.25;0.22;;;23.90;99.90;;;;;;4997857;28;20030;-65
2021/12/01 07:01:18;;;;;;;1.70;0.30;;;23.70;99.90;;;;;;4997714;28;20038;-65
2021/12/01 07:03:46;;;;;;;1.48;0.57;;;23.60;99.90;;;;;;4997834;28;20037;-64
2021/12/01 07:06:14;;;;;;;0.60;0.40;;;23.50;99.90;;;;;;4997900;28;20053;-65
2021/12/01 07:08:42;;;;;;;0.52;0.25;;;23.30;99.90;;;;;;4997619;28;20066;-65
2021/12/01 07:11:10;;;;;;;0.40;0.20;;;23.20;99.90;;;;;;4997702;28;20469;-64
2021/12/01 07:13:38;;;;;;;0.80;0.30;;;23.10;99.90;;;;;;4997655;28;20022;-65
2021/12/01 07:16:06;;;;;;;0.30;0.17;;;23.00;99.90;;;;;;4997638;28;20463;-64
2021/12/01 07:18:34;;;;;;;0.88;0.57;;;22.90;99.90;;;;;;4997711;28;20034;-64
2021/12/01 07:21:03;;;;;;;0.45;0.20;;;22.90;99.90;;;;;;4997431;28;20398;-64
2021/12/01 07:23:31;;;;;;;1.13;0.32;;;22.90;99.90;;;;;;4997373;28;20439;-65
2021/12/01 07:25:59;;;;;;;1.20;0.10;;;22.80;99.90;;;;;;4997433;28;20088;-65
2021/12/01 07:28:27;;;;;;;0.17;0.10;;;22.70;99.90;;;;;;4997211;28;20038;-64
2021/12/01 07:30:55;;;;;;;0.93;0.32;;;22.70;99.90;;;;;;4997348;28;20027;-64
2021/12/01 07:33:24;;;;;;;1.65;0.57;;;22.70;99.90;;;;;;4997200;28;20023;-65
2021/12/01 07:35:52;;;;;;;0.35;0.15;;;22.60;99.90;;;;;;4997198;28;20031;-64
2021/12/01 07:38:20;;;;;;;1.13;0.40;;;22.50;99.90;;;;;;4997064;28;20430;-65
2021/12/01 07:40:48;;;;;;;0.63;0.30;;;22.50;99.90;;;;;;4996957;28;20038;-66
2021/12/01 07:43:15;;;;;;;0.70;0.22;;;22.50;99.90;;;;;;4997105;28;20084;-66
2021/12/01 07:45:43;;;;;;;0.55;0.30;;;22.50;99.90;;;;;;4997043;28;20026;-66
2021/12/01 07:48:14;;;;;;;5.57;0.40;;;22.40;99.90;;;;;;4996980;28;20483;-66
2021/12/01 07:50:42;;;;;;;0.73;0.40;;;22.40;99.90;;;;;;4996877;28;20037;-65
2021/12/01 07:53:10;;;;;;;0.82;0.28;;;22.30;99.90;;;;;;4996259;28;20117;-65
2021/12/01 07:55:39;;;;;;;0.68;0.20;;;22.20;99.90;;;;;;4995087;28;20118;-65
2021/12/01 07:58:06;;;;;;;2.13;0.63;;;22.20;99.90;;;;;;4992658;28;20494;-65
2021/12/01 08:00:34;;;;;;;0.90;0.40;;;22.00;99.90;;;;;;4995149;28;20369;-65
2021/12/01 08:03:03;;;;;;;1.73;0.90;;;21.90;99.90;;;;;;4995518;28;20378;-65
2021/12/01 08:05:31;;;;;;;1.00;0.50;;;21.80;99.90;;;;;;4994933;28;20027;-65
2021/12/01 08:07:59;;;;;;;1.38;0.30;;;21.70;99.90;;;;;;4995187;28;20039;-65
2021/12/01 08:10:27;;;;;;;0.80;0.30;;;21.60;99.90;;;;;;4991873;28;20153;-65
2021/12/01 08:12:56;;;;;;;1.40;0.20;;;21.50;99.90;;;;;;4995855;28;20037;-65
2021/12/01 08:15:24;;;;;;;1.33;0.47;;;21.50;99.90;;;;;;4995974;28;20022;-65
2021/12/01 08:17:52;;;;;;;0.20;0.20;;;21.40;99.90;;;;;;4996507;28;20105;-65
2021/12/01 08:20:21;;;;;;;3.38;0.60;;;21.30;99.90;;;;;;4995928;28;20478;-64
2021/12/01 08:22:49;;;;;;;1.33;0.20;;;21.20;99.90;;;;;;4995850;28;20023;-65
2021/12/01 08:25:17;;;;;;;0.43;0.20;;;21.10;99.90;;;;;;4993563;28;20058;-65
2021/12/01 08:27:45;;;;;;;0.95;0.38;;;21.10;99.90;;;;;;4994552;28;20038;-65
2021/12/01 08:30:13;;;;;;;0.35;0.20;;;21.10;99.90;;;;;;4995199;28;20027;-65
2021/12/01 08:32:45;;;;;;;0.93;0.25;;;21.10;99.90;;;;;;4993900;28;20025;-64
2021/12/01 08:35:16;;;;;;;0.88;0.47;;;21.00;99.90;;;;;;4994270;28;20066;-65
2021/12/01 08:37:44;;;;;;;0.10;0.10;;;21.00;99.90;;;;;;4994667;28;20014;-64
2021/12/01 08:40:14;;;;;;;0.82;0.30;;;20.90;99.90;;;;;;4994548;28;20030;-65
2021/12/01 08:42:41;;;;;;;0.50;0.20;;;20.90;99.90;;;;;;4994602;28;20034;-65
2021/12/01 08:45:09;;;;;;;3.80;0.20;;;20.90;99.90;;;;;;4994752;28;20113;-65
2021/12/01 08:47:37;;;;;;;1.98;0.52;;;20.80;99.90;;;;;;4994224;28;20031;-65
2021/12/01 08:50:07;;;;;;;1.58;0.73;;;20.80;99.90;;;;;;4995052;28;20025;-65
2021/12/01 08:52:35;;;;;;;3.85;0.57;;;20.70;99.90;;;;;;4994401;28;20490;-65
2021/12/01 08:55:03;;;;;;;1.48;0.43;;;20.70;99.90;;;;;;4992370;28;20101;-65
2021/12/01 08:57:30;;;;;;;1.33;0.32;;;20.70;99.90;;;;;;4994738;28;20045;-64
2021/12/01 08:59:58;;;;;;;2.80;0.38;;;20.60;99.90;;;;;;4994627;28;20034;-65
2021/12/01 09:02:25;;;;;;;1.23;0.38;;;20.60;99.90;;;;;;4994094;28;20411;-65
2021/12/01 09:04:52;;;;;;;2.90;0.50;;;20.50;99.90;;;;;;4992981;28;20057;-64
2021/12/01 09:07:21;;;;;;;0.45;0.25;;;20.50;99.90;;;;;;4995183;28;20383;-65
2021/12/01 09:09:48;;;;;;;0.22;0.20;;;20.40;99.90;;;;;;4993815;28;20030;-64
2021/12/01 09:12:18;;;;;;;2.95;0.22;;;20.40;99.90;;;;;;4993565;28;20443;-65
2021/12/01 09:14:45;;;;;;;0.43;0.32;;;20.20;99.90;;;;;;4994349;28;20513;-65
2021/12/01 09:17:13;;;;;;;1.48;0.30;;;20.20;99.90;;;;;;4994386;28;20018;-65
2021/12/01 09:19:41;;;;;;;0.30;0.25;;;20.20;99.90;;;;;;4993022;28;21492;-64
2021/12/01 09:22:09;;;;;;;0.55;0.20;;;20.10;99.90;;;;;;4990818;28;20023;-65
2021/12/01 09:24:37;;;;;;;0.30;0.20;;;20.10;99.90;;;;;;4992509;28;20054;-65
2021/12/01 09:27:04;;;;;;;5.75;0.60;;;20.10;99.90;;;;;;4992042;28;20026;-65
2021/12/01 09:29:32;;;;;;;12.32;0.50;;;20.10;99.90;;;;;;5006877;28;20038;-65
2021/12/01 09:32:00;;;;;;;2.20;0.50;;;20.00;99.90;;;;;;4992525;28;20030;-65
2021/12/01 09:34:27;;;;;;;0.47;0.20;;;20.00;99.90;;;;;;4993039;28;20049;-65
2021/12/01 09:36:56;;;;;;;0.85;0.20;;;19.90;99.90;;;;;;4992882;28;20030;-65
2021/12/01 09:39:25;;;;;;;1.10;0.35;;;19.90;99.90;;;;;;4992870;28;20023;-66
2021/12/01 09:41:55;;;;;;;1.75;0.38;;;19.90;99.90;;;;;;4992702;28;20030;-65
2021/12/01 09:44:22;;;;;;;1.38;0.30;;;19.80;99.90;;;;;;4993022;28;20018;-65
2021/12/01 09:46:50;;;;;;;2.10;0.65;;;19.80;99.90;;;;;;4992783;28;20057;-65
2021/12/01 09:49:17;;;;;;;2.83;0.30;;;19.70;99.90;;;;;;4992626;28;20030;-65
2021/12/01 09:51:45;;;;;;;0.32;0.20;;;19.70;99.90;;;;;;4992407;28;20026;-65
2021/12/01 09:54:13;;;;;;;0.88;0.52;;;19.70;99.90;;;;;;4993009;28;20029;-65
2021/12/01 09:56:40;;;;;;;0.80;0.20;;;19.60;99.90;;;;;;4993958;28;20030;-64
2021/12/01 09:59:08;;;;;;;0.68;0.40;;;19.60;99.90;;;;;;4994051;28;20049;-64
2021/12/01 10:01:35;;;;;;;0.75;0.25;;;19.60;99.90;;;;;;4994127;28;20050;-64
2021/12/01 10:04:03;;;;;;;0.45;0.30;;;19.60;99.90;;;;;;4992944;28;20022;-64
2021/12/01 10:06:32;;;;;;;0.43;0.32;;;19.60;99.90;;;;;;4992642;28;21656;-63
2021/12/01 10:09:05;;;;;;;4.97;0.50;;;19.50;99.90;;;;;;4992375;28;20042;-64
2021/12/01 10:11:35;;;;;;;1.35;0.30;;;19.40;99.90;;;;;;4989492;28;20032;-64
2021/12/01 10:14:09;;;;;;;1.48;0.40;;;19.40;99.90;;;;;;4990421;28;20031;-65
2021/12/01 10:16:42;;;;;;;1.23;0.30;;;19.40;99.90;;;;;;4992094;28;20102;-66
2021/12/01 10:19:11;;;;;;;0.45;0.40;;;19.30;99.90;;;;;;4992098;28;20426;-65
2021/12/01 10:21:43;;;;;;;1.30;0.30;;;19.30;99.90;;;;;;4991828;28;20027;-66
2021/12/01 10:24:19;;;;;;;1.70;0.50;;;19.30;99.90;;;;;;4992272;28;20072;-65
2021/12/01 10:26:53;;;;;;;0.30;0.30;;;19.30;99.90;;;;;;4992113;28;20053;-65
2021/12/01 10:29:23;;;;;;;0.75;0.38;;;19.30;99.90;;;;;;4991827;28;20038;-65
2021/12/01 10:31:54;;;;;;;1.33;0.40;;;19.30;99.90;;;;;;4992255;28;20122;-65
2021/12/01 10:34:35;;;;;;;1.17;0.35;;;19.40;99.90;;;;;;4991911;28;20032;-65
2021/12/01 10:37:40;;;;;;;1.30;0.30;;;19.40;99.90;;;;;;4991094;28;20038;-65
2021/12/01 10:40:20;;;;;;;3.60;0.50;;;19.40;99.90;;;;;;4988975;28;20518;-65
2021/12/01 10:43:05;;;;;;;1.80;0.30;;;19.40;99.90;;;;;;4991572;28;20092;-66
2021/12/01 10:45:35;;;;;;;0.30;0.20;;;19.40;99.90;;;;;;4991399;28;20065;-66
2021/12/01 10:48:04;;;;;;;0.70;0.30;;;19.40;99.90;;;;;;4990840;28;20509;-65
2021/12/01 10:50:34;;;;;;;0.60;0.32;;;19.40;99.90;;;;;;4991406;28;20054;-65
2021/12/01 10:53:11;;;;;;;1.70;0.32;;;19.40;99.90;;;;;;4991475;28;20034;-65
2021/12/01 10:55:45;;;;;;;1.85;0.63;;;19.40;99.90;;;;;;4991346;28;20023;-65
2021/12/01 10:58:15;;;;;;;2.80;0.35;;;19.40;99.90;;;;;;4991114;28;20580;-66
2021/12/01 11:00:44;;;;;;;1.33;0.60;;;19.40;99.90;;;;;;4990694;28;20043;-65
2021/12/01 11:03:13;;;;;;;1.08;0.40;;;19.30;99.90;;;;;;4991418;28;20034;-65
2021/12/01 11:05:43;;;;;;;0.85;0.35;;;19.30;99.90;;;;;;4990847;28;20050;-65
2021/12/01 11:08:16;;;;;;;2.25;0.70;;;19.30;99.90;;;;;;4991182;28;20084;-65
2021/12/01 11:10:46;;;;;;;3.13;0.40;;;19.30;99.90;;;;;;4991241;28;20547;-65
2021/12/01 11:13:14;;;;;;;1.63;0.70;;;19.30;99.90;;;;;;4991116;28;20019;-65
2021/12/01 11:15:50;;;;;;;4.03;0.68;;;19.30;99.90;;;;;;4989746;28;20066;-66
2021/12/01 11:18:35;;;;;;;1.58;0.50;;;19.20;99.90;;;;;;4989843;28;20018;-65
2021/12/01 11:21:16;;;;;;;1.52;0.55;;;19.20;99.90;;;;;;4989360;28;20031;-65
2021/12/01 11:23:49;;;;;;;0.55;0.40;;;19.20;99.90;;;;;;4988605;28;20049;-65
2021/12/01 11:26:20;;;;;;;4.97;0.30;;;19.10;99.90;;;;;;4990885;28;20045;-64
2021/12/01 11:28:51;;;;;;;2.95;0.50;;;19.10;99.90;;;;;;4993647;28;20093;-65
2021/12/01 11:31:32;;;;;;;5.13;0.50;;;19.00;99.90;;;;;;4994055;28;20026;-64
2021/12/01 11:34:05;;;;;;;2.97;0.80;;;19.00;99.90;;;;;;4994455;28;20114;-65
2021/12/01 11:36:36;;;;;;;1.27;0.20;;;19.00;99.90;;;;;;4995906;28;20030;-65
2021/12/01 11:39:10;;;;;;;2.55;0.43;;;19.00;99.90;;;;;;4996092;28;20092;-65
2021/12/01 11:41:42;;;;;;;1.85;0.50;;;18.90;99.90;;;;;;4994623;28;20029;-65
2021/12/01 11:44:12;;;;;;;9.75;0.82;;;18.80;99.90;;;;;;4995646;28;20498;-65
2021/12/01 11:46:40;;;;;;;4.15;0.30;;;18.80;99.90;;;;;;4995565;28;20368;-64
2021/12/01 11:49:12;;;;;;;0.52;0.28;;;18.70;99.90;;;;;;4995821;28;20089;-64
2021/12/01 11:51:55;;;;;;;2.20;0.52;;;18.70;99.90;;;;;;4994387;28;20026;-65
2021/12/01 11:54:24;;;;;;;1.58;0.40;;;18.70;99.90;;;;;;4994126;28;20024;-65
2021/12/01 11:56:57;;;;;;;0.80;0.20;;;18.70;99.90;;;;;;4995342;28;20026;-64
2021/12/01 11:59:45;;;;;;;2.08;0.20;;;18.70;99.90;;;;;;4995845;28;20419;-64
2021/12/01 12:02:23;;;;;;;1.48;0.68;;;18.70;99.90;;;;;;4994883;28;20495;-65
2021/12/01 12:04:56;;;;;;;2.72;0.60;;;18.60;99.90;;;;;;4994801;28;20306;-65
2021/12/01 12:07:33;;;;;;;0.38;0.30;;;18.60;99.90;;;;;;4994419;28;20428;-64
2021/12/01 12:10:08;;;;;;;1.98;0.50;;;18.60;99.90;;;;;;4995064;28;20030;-64
2021/12/01 12:13:07;;;;;;;0.77;0.47;;;18.60;99.90;;;;;;4994223;28;20539;-65
2021/12/01 12:15:48;;;;;;;0.93;0.52;;;18.50;99.90;;;;;;4994933;28;20395;-65
2021/12/01 12:18:49;;;;;;;1.52;0.82;;;18.40;99.90;;;;;;4993932;28;20023;-65
2021/12/01 12:21:26;;;;;;;1.15;0.50;;;18.40;99.90;;;;;;4993284;28;20077;-65
2021/12/01 12:24:02;;;;;;;1.63;0.77;;;18.30;99.90;;;;;;4994798;28;20213;-65
2021/12/01 12:26:52;;;;;;;2.25;0.35;;;18.30;99.90;;;;;;4994379;28;20446;-65
2021/12/01 12:29:25;;;;;;;0.60;0.40;;;18.30;99.90;;;;;;4994585;28;20038;-65
2021/12/01 12:32:13;;;;;;;1.80;0.55;;;18.30;99.90;;;;;;4993586;28;20030;-65
2021/12/01 12:34:52;;;;;;;0.30;0.30;;;18.30;99.90;;;;;;4994354;28;20026;-66
2021/12/01 12:37:25;;;;;;;0.60;0.38;;;18.30;99.90;;;;;;4993194;28;20085;-65
2021/12/01 12:39:53;;;;;;;1.02;0.40;;;18.30;99.90;;;;;;4991595;28;20030;-65
2021/12/01 12:42:22;;;;;;;2.05;0.35;;;18.20;99.90;;;;;;4993127;28;20018;-65
2021/12/01 12:44:52;;;;;;;3.10;0.40;;;18.30;99.90;;;;;;4993811;28;20064;-65
2021/12/01 12:47:25;;;;;;;1.90;0.45;;;18.20;99.90;;;;;;4994198;28;20030;-65
2021/12/01 12:49:59;;;;;;;4.93;0.47;;;18.30;99.90;;;;;;4994991;28;20041;-65
2021/12/01 12:52:26;;;;;;;2.72;0.30;;;18.30;99.90;;;;;;4992656;28;20030;-65
2021/12/01 12:55:13;;;;;;;1.55;0.40;;;18.30;99.90;;;;;;4995122;28;20030;-65
2021/12/01 12:57:48;;;;;;;0.70;0.40;;;18.20;99.90;;;;;;4994575;28;20045;-65
2021/12/01 13:00:26;;;;;;;1.50;0.40;;;18.20;99.90;;;;;;4994947;28;20026;-65
2021/12/01 13:02:55;;;;;;;0.68;0.38;;;18.10;99.90;;;;;;4993476;28;20031;-65
2021/12/01 13:05:38;;;;;;;0.90;0.40;;;18.10;99.90;;;;;;4994891;28;20058;-65
2021/12/01 13:08:44;;;;;;;1.20;0.55;;;18.10;99.90;;;;;;4992420;28;20541;-65